createdAt,value
2019-02-16T00:00:10.746Z,14.07
2019-02-16T00:01:17.688Z,13.20
2019-02-16T00:02:24.065Z,12.20
2019-02-16T00:03:29.430Z,11.33
2019-02-16T00:04:34.801Z,10.70
2019-02-16T00:05:40.297Z,16.50
2019-02-16T00:06:45.882Z,11.73
2019-02-16T00:07:51.224Z,9.70
2019-02-16T00:08:59.084Z,10.27
2019-02-16T00:10:05.752Z,12.20
2019-02-16T00:11:11.774Z,9.67
2019-02-16T00:12:17.123Z,9.50
2019-02-16T00:13:22.450Z,10.57
2019-02-16T00:14:27.902Z,9.20
2019-02-16T00:15:33.338Z,11.10
2019-02-16T00:16:39.217Z,11.17
2019-02-16T00:17:45.142Z,11.33
2019-02-16T00:18:50.627Z,12.27
2019-02-16T00:19:58.650Z,9.93
2019-02-16T00:21:04.430Z,9.23
2019-02-16T00:22:12.828Z,9.57
2019-02-16T00:23:18.147Z,9.80
2019-02-16T00:24:23.999Z,12.23
2019-02-16T00:25:29.351Z,11.87
2019-02-16T00:26:34.572Z,11.50
2019-02-16T00:27:44.218Z,10.60
2019-02-16T00:28:49.485Z,9.90
2019-02-16T00:29:55.989Z,9.50
2019-02-16T00:31:01.322Z,8.50
2019-02-16T00:32:08.032Z,13.83
2019-02-16T00:33:14.773Z,9.10
2019-02-16T00:34:20.142Z,10.37
2019-02-16T00:35:25.315Z,10.67
2019-02-16T00:36:30.665Z,11.30
2019-02-16T00:37:35.977Z,11.87
2019-02-16T00:38:41.297Z,9.87
2019-02-16T00:39:46.878Z,8.53
2019-02-16T00:41:02.942Z,7.77
2019-02-16T00:42:16.080Z,9.53
2019-02-16T00:43:37.864Z,9.57
2019-02-16T00:45:18.883Z,10.33
2019-02-16T00:52:28.119Z,8.10
2019-02-16T00:53:56.803Z,9.33
2019-02-16T00:58:20.628Z,9.87
2019-02-16T01:15:12.000Z,9.23
2019-02-16T01:15:29.986Z,9.43
2019-02-16T01:16:47.325Z,8.07
2019-02-16T01:18:52.564Z,7.10
2019-02-16T01:21:01.713Z,9.23
2019-02-16T01:26:12.479Z,11.13
2019-02-16T01:27:42.285Z,9.10
2019-02-16T01:30:07.766Z,9.45
2019-02-16T01:32:42.594Z,8.58
2019-02-16T01:34:02.161Z,8.08
2019-02-16T01:37:14.613Z,9.63
2019-02-16T01:38:47.556Z,12.53
2019-02-16T01:40:09.296Z,7.77
2019-02-16T01:41:42.642Z,9.65
2019-02-16T01:43:03.804Z,11.77
2019-02-16T01:44:42.701Z,10.37
2019-02-16T01:46:08.675Z,7.90
2019-02-16T01:47:43.747Z,8.83
2019-02-16T02:00:40.873Z,11.83
2019-02-16T02:04:05.979Z,12.45
2019-02-16T02:08:09.647Z,9.07
2019-02-16T02:17:20.233Z,8.15
2019-02-16T02:19:00.618Z,10.40
2019-02-16T02:26:45.214Z,8.83
2019-02-16T02:28:37.214Z,9.78
2019-02-16T02:32:00.634Z,13.38
2019-02-16T02:33:34.749Z,8.83
2019-02-16T02:35:22.756Z,8.53
2019-02-16T02:37:11.799Z,10.43
2019-02-16T02:40:53.798Z,8.90
2019-02-16T02:42:11.065Z,10.53
2019-02-16T02:43:36.425Z,11.20
2019-02-16T02:43:37.813Z,9.35
2019-02-16T02:45:18.727Z,9.88
2019-02-16T02:46:58.090Z,8.83
2019-02-16T02:48:14.992Z,8.48
2019-02-16T02:49:39.148Z,7.97
2019-02-16T02:53:31.889Z,8.35
2019-02-16T03:00:11.301Z,8.98
2019-02-16T03:20:30.866Z,11.78
2019-02-16T03:28:00.023Z,8.85
2019-02-16T03:30:56.043Z,8.83
2019-02-16T03:35:46.817Z,10.58
2019-02-16T03:37:03.052Z,8.80
2019-02-16T03:46:09.466Z,9.17
2019-02-16T03:47:56.894Z,11.38
2019-02-16T03:49:18.261Z,9.60
2019-02-16T03:59:44.454Z,12.18
2019-02-16T04:01:11.292Z,9.40
2019-02-16T04:07:25.779Z,10.98
2019-02-16T04:09:03.679Z,10.07
2019-02-16T04:10:50.910Z,12.85
2019-02-16T04:18:15.721Z,9.90
2019-02-16T04:19:54.143Z,10.90
2019-02-16T04:33:19.625Z,9.47
2019-02-16T04:44:41.972Z,10.00
2019-02-16T04:46:31.650Z,11.33
2019-02-16T04:49:51.904Z,9.80
2019-02-16T04:52:00.721Z,11.90
2019-02-16T04:52:10.277Z,14.93
2019-02-16T04:57:33.478Z,11.23
2019-02-16T04:58:52.023Z,13.80
2019-02-16T05:05:23.484Z,10.90
2019-02-16T05:06:57.169Z,10.08
2019-02-16T05:08:33.125Z,9.63
2019-02-16T05:09:48.127Z,12.18
2019-02-16T05:11:25.477Z,12.28
2019-02-16T05:16:40.567Z,9.98
2019-02-16T05:18:21.537Z,11.48
2019-02-16T05:21:26.367Z,12.23
2019-02-16T05:22:33.599Z,12.30
2019-02-16T05:25:33.831Z,10.98
2019-02-16T05:27:24.796Z,11.75
2019-02-16T05:29:04.666Z,12.28
2019-02-16T05:32:54.688Z,14.28
2019-02-16T05:36:33.956Z,11.15
2019-02-16T05:39:53.785Z,10.60
2019-02-16T05:43:11.245Z,12.07
2019-02-16T05:44:46.345Z,10.72
2019-02-16T05:45:03.677Z,14.65
2019-02-16T05:45:54.595Z,10.23
2019-02-16T05:47:31.214Z,11.55
2019-02-16T05:48:37.846Z,11.97
2019-02-16T05:51:57.077Z,11.28
2019-02-16T05:53:31.156Z,12.80
2019-02-16T05:55:14.676Z,12.68
2019-02-16T05:58:57.874Z,12.93
2019-02-16T06:05:01.215Z,14.45
2019-02-16T06:05:51.398Z,13.32
2019-02-16T06:09:13.050Z,12.18
2019-02-16T06:19:37.741Z,13.35
2019-02-16T06:59:28.877Z,15.23
2019-02-16T07:00:50.966Z,14.63
2019-02-16T07:08:10.356Z,12.78
2019-02-16T07:11:44.204Z,14.30
2019-02-16T07:17:58.140Z,14.93
2019-02-16T07:19:39.872Z,13.80
2019-02-16T07:20:45.446Z,15.88
2019-02-16T07:21:51.572Z,15.95
2019-02-16T07:22:59.610Z,16.30
2019-02-16T07:24:06.693Z,13.85
2019-02-16T07:29:26.827Z,16.90
2019-02-16T07:30:38.176Z,16.97
2019-02-16T07:31:45.534Z,12.00
2019-02-16T07:33:09.017Z,17.23
2019-02-16T07:34:29.624Z,15.43
2019-02-16T07:35:36.198Z,14.40
2019-02-16T07:36:41.873Z,13.37
2019-02-16T07:37:55.871Z,14.47
2019-02-16T07:39:14.916Z,15.17
2019-02-16T07:40:22.146Z,12.13
2019-02-16T07:41:33.540Z,12.80
2019-02-16T07:42:59.335Z,13.47
2019-02-16T07:44:36.059Z,13.57
2019-02-16T07:48:42.955Z,14.27
2019-02-16T07:50:26.235Z,11.57
2019-02-16T07:52:03.613Z,15.17
2019-02-16T07:53:53.677Z,18.57
2019-02-16T07:58:24.074Z,12.27
2019-02-16T08:00:36.268Z,16.90
2019-02-16T08:02:25.083Z,15.20
2019-02-16T08:03:52.159Z,14.73
2019-02-16T08:05:31.803Z,15.60
2019-02-16T08:07:17.055Z,14.27
2019-02-16T08:09:01.247Z,15.40
2019-02-16T08:10:38.154Z,13.80
2019-02-16T08:12:04.437Z,14.03
2019-02-16T08:13:31.402Z,13.60
2019-02-16T08:14:49.091Z,12.17
2019-02-16T08:16:28.497Z,13.97
2019-02-16T08:17:50.785Z,12.90
2019-02-16T08:19:22.999Z,15.03
2019-02-16T08:20:56.345Z,12.63
2019-02-16T08:22:38.712Z,13.07
2019-02-16T08:24:23.031Z,13.10
2019-02-16T08:25:51.753Z,14.17
2019-02-16T08:27:50.857Z,12.47
2019-02-16T08:29:25.786Z,14.80
2019-02-16T08:30:50.744Z,12.10
2019-02-16T08:32:14.241Z,14.40
2019-02-16T08:34:27.008Z,13.90
2019-02-16T08:35:38.049Z,12.53
2019-02-16T08:37:24.160Z,15.23
2019-02-16T08:38:49.483Z,12.67
2019-02-16T08:40:23.571Z,13.87
2019-02-16T08:41:56.688Z,11.20
2019-02-16T08:43:38.614Z,14.17
2019-02-16T08:45:20.192Z,12.80
2019-02-16T08:46:46.569Z,13.07
2019-02-16T08:48:28.550Z,13.90
2019-02-16T08:50:08.173Z,13.47
2019-02-16T08:51:53.242Z,13.90
2019-02-16T08:54:01.043Z,12.80
2019-02-16T08:55:27.859Z,16.13
2019-02-16T08:56:55.811Z,15.93
2019-02-16T08:58:10.872Z,12.90
2019-02-16T08:59:36.391Z,16.47
2019-02-16T09:01:28.009Z,16.57
2019-02-16T09:03:29.446Z,13.30
2019-02-16T09:04:57.502Z,14.50
2019-02-16T09:06:31.885Z,15.40
2019-02-16T09:08:04.220Z,15.33
2019-02-16T09:09:35.144Z,15.10
2019-02-16T09:11:29.601Z,14.17
2019-02-16T09:15:43.165Z,13.10
2019-02-16T09:18:05.741Z,17.57
2019-02-16T09:22:57.541Z,13.30
2019-02-16T09:29:22.064Z,10.90
2019-02-16T09:30:45.798Z,13.37
2019-02-16T09:32:09.738Z,13.23
2019-02-16T09:33:36.766Z,12.53
2019-02-16T09:34:54.733Z,12.27
2019-02-16T09:36:11.891Z,14.40
2019-02-16T09:37:35.374Z,10.10
2019-02-16T09:39:02.249Z,11.03
2019-02-16T09:40:43.141Z,13.73
2019-02-16T09:42:06.320Z,12.60
2019-02-16T09:43:32.350Z,11.40
2019-02-16T09:45:02.366Z,11.93
2019-02-16T09:46:14.102Z,11.97
2019-02-16T09:47:41.184Z,14.13
2019-02-16T09:49:08.154Z,10.20
2019-02-16T09:50:28.972Z,13.47
2019-02-16T09:51:59.772Z,13.10
2019-02-16T09:53:39.741Z,11.77
2019-02-16T09:54:51.419Z,11.87
2019-02-16T09:56:32.199Z,11.73
2019-02-16T09:57:56.003Z,15.27
2019-02-16T09:59:17.781Z,11.23
2019-02-16T10:00:33.181Z,11.57
2019-02-16T10:01:55.979Z,10.53
2019-02-16T10:03:10.834Z,11.63
2019-02-16T10:04:25.437Z,13.20
2019-02-16T10:05:42.232Z,13.10
2019-02-16T10:07:09.482Z,12.87
2019-02-16T10:08:32.514Z,13.10
2019-02-16T10:09:56.764Z,10.73
2019-02-16T10:11:13.900Z,13.43
2019-02-16T10:12:37.082Z,11.70
2019-02-16T10:13:52.931Z,14.47
2019-02-16T10:15:17.137Z,13.80
2019-02-16T10:16:53.559Z,14.30
2019-02-16T10:18:20.809Z,14.03
2019-02-16T10:19:47.985Z,13.50
2019-02-16T10:21:15.675Z,13.27
2019-02-16T10:22:34.483Z,15.03
2019-02-16T10:23:57.526Z,14.13
2019-02-16T10:25:15.227Z,14.50
2019-02-16T10:26:38.477Z,15.00
2019-02-16T10:27:55.279Z,16.43
2019-02-16T10:29:11.454Z,15.40
2019-02-16T10:30:22.829Z,14.33
2019-02-16T10:31:49.877Z,13.80
2019-02-16T10:33:08.350Z,17.63
2019-02-16T10:34:36.419Z,15.83
2019-02-16T10:36:04.112Z,14.63
2019-02-16T10:37:30.381Z,15.70
2019-02-16T10:38:58.135Z,17.90
2019-02-16T10:40:21.137Z,14.77
2019-02-16T10:42:01.337Z,16.60
2019-02-16T10:43:28.087Z,14.90
2019-02-16T10:44:40.213Z,19.73
2019-02-16T10:46:11.790Z,15.43
2019-02-16T10:47:28.110Z,17.67
2019-02-16T10:48:48.153Z,19.43
2019-02-16T10:50:10.958Z,23.67
2019-02-16T10:51:44.079Z,19.93
2019-02-16T10:53:18.394Z,19.57
2019-02-16T10:54:45.707Z,21.63
2019-02-16T10:56:16.165Z,21.27
2019-02-16T10:57:45.486Z,18.27
2019-02-16T10:59:21.902Z,21.77
2019-02-16T11:00:49.168Z,19.07
2019-02-16T11:02:04.566Z,19.30
2019-02-16T11:03:27.746Z,22.00
2019-02-16T11:04:56.730Z,22.63
2019-02-16T11:06:08.987Z,22.83
2019-02-16T11:07:24.518Z,24.27
2019-02-16T11:09:03.935Z,26.07
2019-02-16T11:10:25.223Z,20.07
2019-02-16T11:12:07.911Z,21.63
2019-02-16T11:13:22.808Z,23.83
2019-02-16T11:14:38.984Z,23.73
2019-02-16T11:16:02.170Z,30.27
2019-02-16T11:17:25.239Z,25.10
2019-02-16T11:18:52.671Z,27.57
2019-02-16T11:20:07.084Z,21.87
2019-02-16T11:21:21.085Z,23.73
2019-02-16T11:22:46.625Z,28.00
2019-02-16T11:24:10.869Z,25.40
2019-02-16T11:25:34.165Z,39.00
2019-02-16T11:26:51.439Z,61.10
2019-02-16T11:28:08.846Z,34.03
2019-02-16T11:29:31.819Z,26.37
2019-02-16T11:31:03.669Z,23.07
2019-02-16T11:32:46.009Z,27.60
2019-02-16T11:34:04.312Z,25.30
2019-02-16T11:35:43.938Z,26.70
2019-02-16T11:37:11.192Z,24.73
2019-02-16T11:38:23.051Z,30.00
2019-02-16T11:39:41.991Z,24.37
2019-02-16T11:40:59.591Z,26.70
2019-02-16T11:42:17.410Z,30.57
2019-02-16T11:43:41.670Z,43.53
2019-02-16T11:45:05.626Z,28.10
2019-02-16T11:46:32.571Z,32.57
2019-02-16T11:48:02.345Z,55.93
2019-02-16T11:49:16.776Z,46.60
2019-02-16T11:50:34.362Z,31.97
2019-02-16T11:51:57.337Z,29.23
2019-02-16T11:53:33.532Z,27.67
2019-02-16T11:54:57.787Z,28.47
2019-02-16T11:56:19.967Z,30.00
2019-02-16T11:57:50.052Z,38.87
2019-02-16T11:59:17.050Z,25.77
2019-02-16T12:00:47.333Z,30.47
2019-02-16T12:02:07.540Z,28.30
2019-02-16T12:03:24.782Z,32.80
2019-02-16T12:04:57.949Z,32.53
2019-02-16T12:06:10.240Z,28.97
2019-02-16T12:07:22.105Z,36.23
2019-02-16T12:08:53.061Z,30.40
2019-02-16T12:10:11.359Z,27.83
2019-02-16T12:11:34.668Z,26.70
2019-02-16T12:12:57.661Z,28.60
2019-02-16T12:14:22.045Z,27.90
2019-02-16T12:15:59.939Z,31.43
2019-02-16T12:17:27.591Z,34.53
2019-02-16T12:18:50.716Z,27.23
2019-02-16T12:20:34.115Z,26.57
2019-02-16T12:21:58.618Z,30.13
2019-02-16T12:23:15.334Z,30.87
2019-02-16T12:24:32.806Z,28.70
2019-02-16T12:25:53.617Z,29.53
2019-02-16T12:27:26.001Z,31.90
2019-02-16T12:28:50.023Z,28.13
2019-02-16T12:30:14.480Z,33.97
2019-02-16T12:31:33.338Z,32.10
2019-02-16T12:33:05.495Z,35.30
2019-02-16T12:34:21.410Z,36.63
2019-02-16T12:35:35.975Z,33.90
2019-02-16T12:37:03.437Z,36.57
2019-02-16T12:38:28.379Z,34.20
2019-02-16T12:39:48.976Z,35.87
2019-02-16T12:41:15.905Z,35.43
2019-02-16T12:42:48.249Z,35.23
2019-02-16T12:44:15.661Z,36.20
2019-02-16T12:45:27.586Z,31.53
2019-02-16T12:46:39.285Z,32.17
2019-02-16T12:48:13.431Z,38.63
2019-02-16T12:49:36.470Z,37.50
2019-02-16T12:50:51.603Z,32.07
2019-02-16T12:52:17.964Z,34.77
2019-02-16T12:53:42.262Z,34.97
2019-02-16T12:55:14.594Z,31.70
2019-02-16T12:56:26.773Z,29.93
2019-02-16T12:57:57.410Z,30.10
2019-02-16T12:59:21.751Z,31.87
2019-02-16T13:00:56.510Z,29.77
2019-02-16T13:02:25.538Z,28.83
2019-02-16T13:03:41.927Z,33.07
2019-02-16T13:05:07.682Z,32.17
2019-02-16T13:06:31.069Z,32.73
2019-02-16T13:07:47.596Z,30.80
2019-02-16T13:09:09.804Z,31.83
2019-02-16T13:10:43.028Z,27.17
2019-02-16T13:12:08.086Z,32.20
2019-02-16T13:13:22.355Z,27.97
2019-02-16T13:14:46.405Z,32.50
2019-02-16T13:16:19.772Z,26.97
2019-02-16T13:17:36.883Z,26.80
2019-02-16T13:18:52.295Z,26.23
2019-02-16T13:20:22.663Z,27.27
2019-02-16T13:21:52.650Z,26.87
2019-02-16T13:23:20.129Z,27.47
2019-02-16T13:24:53.355Z,29.53
2019-02-16T13:26:10.856Z,26.77
2019-02-16T13:27:33.563Z,25.97
2019-02-16T13:29:13.427Z,28.60
2019-02-16T13:30:34.131Z,27.47
2019-02-16T13:31:46.805Z,29.80
2019-02-16T13:33:08.705Z,29.57
2019-02-16T13:34:36.119Z,31.73
2019-02-16T13:36:09.520Z,28.13
2019-02-16T13:37:31.628Z,28.03
2019-02-16T13:38:56.360Z,24.67
2019-02-16T13:40:11.144Z,29.43
2019-02-16T13:41:34.277Z,27.93
2019-02-16T13:43:07.629Z,31.03
2019-02-16T13:44:34.677Z,27.57
2019-02-16T13:46:01.925Z,27.60
2019-02-16T13:47:32.187Z,30.33
2019-02-16T13:48:48.649Z,29.30
2019-02-16T13:50:15.837Z,29.93
2019-02-16T13:51:40.059Z,27.07
2019-02-16T13:53:16.285Z,28.13
2019-02-16T13:54:40.502Z,25.03
2019-02-16T13:56:04.755Z,27.63
2019-02-16T13:57:28.611Z,25.27
2019-02-16T13:59:04.830Z,23.27
2019-02-16T14:00:27.320Z,23.67
2019-02-16T14:01:40.394Z,23.67
2019-02-16T14:03:10.799Z,25.40
2019-02-16T14:04:38.104Z,25.80
2019-02-16T14:06:02.463Z,26.63
2019-02-16T14:07:29.614Z,22.37
2019-02-16T14:08:54.015Z,27.90
2019-02-16T14:10:27.471Z,24.27
2019-02-16T14:11:56.234Z,25.13
2019-02-16T14:13:29.620Z,25.93
2019-02-16T14:14:56.624Z,26.33
2019-02-16T14:16:06.712Z,23.63
2019-02-16T14:17:25.557Z,23.20
2019-02-16T14:18:30.842Z,24.67
2019-02-16T14:19:36.251Z,24.03
2019-02-16T14:20:41.768Z,24.13
2019-02-16T14:21:47.038Z,25.60
2019-02-16T14:22:52.252Z,22.37
2019-02-16T14:23:57.579Z,22.27
2019-02-16T14:25:03.902Z,24.90
2019-02-16T14:26:09.138Z,22.70
2019-02-16T14:27:14.830Z,24.40
2019-02-16T14:28:20.174Z,24.63
2019-02-16T14:29:25.695Z,24.37
2019-02-16T14:30:31.006Z,20.93
2019-02-16T14:31:36.166Z,21.60
2019-02-16T14:32:41.587Z,22.90
2019-02-16T14:33:46.802Z,19.00
2019-02-16T14:34:54.368Z,25.27
2019-02-16T14:35:59.596Z,22.87
2019-02-16T14:37:06.948Z,21.27
2019-02-16T14:38:46.662Z,21.27
2019-02-16T14:39:51.840Z,21.50
2019-02-16T14:40:57.130Z,25.77
2019-02-16T14:42:02.444Z,24.53
2019-02-16T14:43:07.722Z,22.23
2019-02-16T14:44:12.962Z,23.83
2019-02-16T14:45:18.362Z,22.87
2019-02-16T14:46:23.553Z,20.73
2019-02-16T14:47:28.874Z,21.63
2019-02-16T14:48:34.135Z,24.33
2019-02-16T14:49:39.375Z,24.17
2019-02-16T14:50:44.713Z,22.23
2019-02-16T14:51:50.295Z,21.97
2019-02-16T14:52:55.599Z,26.37
2019-02-16T14:54:00.755Z,22.07
2019-02-16T14:55:08.262Z,23.00
2019-02-16T14:56:13.683Z,24.60
2019-02-16T14:57:19.024Z,22.67
2019-02-16T14:58:24.165Z,24.00
2019-02-16T14:59:29.429Z,22.83
2019-02-16T15:00:34.695Z,22.60
2019-02-16T15:01:40.161Z,20.80
2019-02-16T15:02:45.513Z,24.43
2019-02-16T15:03:50.718Z,20.93
2019-02-16T15:04:55.969Z,21.57
2019-02-16T15:06:01.345Z,21.73
2019-02-16T15:07:06.786Z,24.57
2019-02-16T15:08:12.072Z,21.53
2019-02-16T15:09:19.491Z,22.40
2019-02-16T15:10:24.788Z,25.37
2019-02-16T15:11:30.240Z,25.63
2019-02-16T15:12:35.522Z,25.67
2019-02-16T15:13:40.782Z,22.07
2019-02-16T15:14:46.624Z,22.07
2019-02-16T15:15:51.995Z,25.00
2019-02-16T15:16:57.446Z,25.50
2019-02-16T15:18:03.809Z,24.60
2019-02-16T15:19:09.477Z,23.87
2019-02-16T15:20:14.776Z,24.53
2019-02-16T15:21:20.131Z,23.47
2019-02-16T15:22:25.457Z,24.10
2019-02-16T15:23:31.138Z,22.63
2019-02-16T15:24:36.434Z,20.10
2019-02-16T15:25:45.981Z,24.23
2019-02-16T15:26:51.515Z,22.00
2019-02-16T15:27:57.103Z,25.13
2019-02-16T15:29:02.420Z,25.17
2019-02-16T15:30:14.693Z,23.57
2019-02-16T15:31:21.245Z,21.50
2019-02-16T15:32:27.047Z,26.13
2019-02-16T15:33:32.250Z,23.80
2019-02-16T15:34:39.850Z,21.97
2019-02-16T15:35:44.998Z,28.43
2019-02-16T15:36:50.174Z,23.33
2019-02-16T15:37:55.547Z,24.07
2019-02-16T15:39:00.726Z,24.50
2019-02-16T15:40:08.773Z,25.67
2019-02-16T15:41:14.368Z,23.50
2019-02-16T15:42:19.674Z,25.10
2019-02-16T15:43:27.012Z,25.67
2019-02-16T15:44:32.335Z,28.37
2019-02-16T15:45:37.540Z,25.97
2019-02-16T15:46:42.897Z,22.07
2019-02-16T15:47:48.286Z,26.60
2019-02-16T15:48:53.904Z,25.10
2019-02-16T15:49:59.106Z,24.60
2019-02-16T15:51:05.003Z,24.03
2019-02-16T15:52:10.283Z,24.43
2019-02-16T15:53:16.206Z,25.47
2019-02-16T15:54:21.379Z,27.87
2019-02-16T15:55:27.832Z,24.50
2019-02-16T15:56:33.204Z,26.47
2019-02-16T15:57:38.766Z,25.00
2019-02-16T15:58:44.178Z,24.13
2019-02-16T15:59:49.604Z,28.57
2019-02-16T16:00:54.904Z,25.90
2019-02-16T16:02:00.395Z,27.87
2019-02-16T16:03:05.885Z,28.87
2019-02-16T16:04:11.274Z,26.83
2019-02-16T16:05:16.854Z,22.30
2019-02-16T16:06:22.140Z,26.00
2019-02-16T16:07:27.447Z,27.23
2019-02-16T16:08:38.866Z,27.87
2019-02-16T16:10:03.327Z,26.13
2019-02-16T16:11:14.956Z,26.63
2019-02-16T16:12:39.130Z,31.00
2019-02-16T16:13:57.454Z,27.43
2019-02-16T16:15:28.189Z,28.27
2019-02-16T16:16:48.170Z,26.20
2019-02-16T16:18:12.894Z,27.60
2019-02-16T16:19:38.154Z,26.47
2019-02-16T16:21:08.149Z,24.00
2019-02-16T16:22:32.445Z,26.70
2019-02-16T16:23:59.597Z,24.70
2019-02-16T16:25:19.601Z,26.60
2019-02-16T16:26:51.705Z,26.20
2019-02-16T16:28:18.961Z,30.50
2019-02-16T16:29:44.648Z,28.10
2019-02-16T16:31:08.879Z,31.30
2019-02-16T16:32:39.491Z,28.37
2019-02-16T16:34:02.265Z,28.00
2019-02-16T16:35:39.145Z,30.67
2019-02-16T16:37:02.263Z,30.10
2019-02-16T16:38:29.425Z,29.70
2019-02-16T16:39:46.548Z,26.40
2019-02-16T16:41:26.276Z,29.23
2019-02-16T16:42:49.498Z,30.00
2019-02-16T16:44:13.696Z,24.47
2019-02-16T16:45:38.009Z,25.80
2019-02-16T16:47:12.206Z,24.43
2019-02-16T16:48:42.268Z,28.43
2019-02-16T16:50:24.644Z,26.47
2019-02-16T16:51:47.439Z,26.07
2019-02-16T16:53:10.486Z,29.70
2019-02-16T16:54:40.855Z,25.60
2019-02-16T16:56:11.321Z,26.20
2019-02-16T16:57:34.746Z,26.90
2019-02-16T16:58:56.028Z,28.10
2019-02-16T17:00:23.041Z,24.60
2019-02-16T17:01:59.812Z,28.17
2019-02-16T17:03:16.952Z,28.93
2019-02-16T17:04:34.050Z,30.40
2019-02-16T17:06:01.280Z,31.77
2019-02-16T17:07:24.804Z,26.90
2019-02-16T17:08:48.072Z,25.57
2019-02-16T17:10:15.188Z,29.17
2019-02-16T17:11:35.340Z,52.57
2019-02-16T17:12:56.189Z,31.90
2019-02-16T17:14:19.986Z,30.00
2019-02-16T17:15:49.002Z,30.13
2019-02-16T17:17:16.365Z,27.53
2019-02-16T17:18:46.881Z,29.57
2019-02-16T17:19:59.629Z,29.00
2019-02-16T17:21:23.070Z,29.93
2019-02-16T17:22:57.126Z,29.27
2019-02-16T17:24:36.782Z,27.50
2019-02-16T17:26:05.191Z,29.20
2019-02-16T17:27:29.564Z,28.37
2019-02-16T17:28:59.663Z,31.60
2019-02-16T17:30:14.092Z,26.80
2019-02-16T17:31:24.626Z,28.97
2019-02-16T17:32:37.577Z,29.53
2019-02-16T17:34:05.096Z,27.17
2019-02-16T17:35:29.346Z,26.50
2019-02-16T17:36:53.633Z,28.23
2019-02-16T17:38:21.069Z,29.47
2019-02-16T17:39:53.805Z,27.60
2019-02-16T17:41:11.446Z,29.53
2019-02-16T17:42:34.570Z,27.37
2019-02-16T17:43:52.734Z,31.37
2019-02-16T17:45:08.553Z,31.57
2019-02-16T17:46:45.440Z,30.87
2019-02-16T17:48:18.567Z,26.23
2019-02-16T17:49:45.618Z,30.57
2019-02-16T17:51:00.498Z,30.20
2019-02-16T17:52:24.890Z,28.90
2019-02-16T17:53:51.835Z,40.13
2019-02-16T17:55:19.177Z,30.43
2019-02-16T17:56:46.761Z,29.90
2019-02-16T17:58:07.143Z,28.27
2019-02-16T17:59:25.996Z,29.43
2019-02-16T18:00:50.533Z,29.00
2019-02-16T18:02:03.172Z,26.77
2019-02-16T18:03:35.459Z,28.50
2019-02-16T18:05:09.042Z,29.33
2019-02-16T18:06:24.181Z,27.57
2019-02-16T18:07:57.443Z,30.93
2019-02-16T18:09:21.709Z,31.20
2019-02-16T18:10:52.372Z,31.87
2019-02-16T18:12:11.456Z,28.00
2019-02-16T18:13:39.344Z,25.10
2019-02-16T18:14:57.847Z,30.73
2019-02-16T18:16:13.164Z,29.17
2019-02-16T18:17:31.328Z,28.77
2019-02-16T18:18:54.202Z,28.87
2019-02-16T18:20:26.486Z,29.03
2019-02-16T18:21:52.323Z,24.83
2019-02-16T18:23:06.534Z,25.70
2019-02-16T18:24:29.672Z,29.03
2019-02-16T18:25:54.139Z,28.10
2019-02-16T18:27:21.207Z,27.83
2019-02-16T18:28:57.411Z,27.70
2019-02-16T18:30:16.629Z,29.17
2019-02-16T18:31:43.400Z,26.67
2019-02-16T18:33:03.553Z,30.57
2019-02-16T18:34:38.852Z,29.60
2019-02-16T18:36:06.034Z,28.10
2019-02-16T18:37:33.095Z,26.63
2019-02-16T18:38:57.347Z,27.57
2019-02-16T18:40:20.471Z,25.83
2019-02-16T18:41:43.789Z,26.37
2019-02-16T18:43:06.701Z,25.43
2019-02-16T18:44:39.955Z,27.57
2019-02-16T18:46:13.101Z,29.60
2019-02-16T18:47:30.191Z,29.83
2019-02-16T18:49:04.308Z,30.40
2019-02-16T18:50:24.879Z,31.07
2019-02-16T18:51:54.957Z,29.63
2019-02-16T18:55:26.371Z,32.00
2019-02-16T18:57:06.018Z,30.20
2019-02-16T18:58:34.947Z,30.60
2019-02-16T18:59:59.267Z,31.00
2019-02-16T19:01:41.984Z,32.73
2019-02-16T19:03:03.298Z,31.23
2019-02-16T19:04:21.063Z,35.47
2019-02-16T19:05:51.232Z,28.80
2019-02-16T19:07:12.003Z,30.97
2019-02-16T19:08:42.421Z,28.40
2019-02-16T19:10:05.676Z,32.33
2019-02-16T19:11:29.905Z,34.17
2019-02-16T19:12:49.032Z,36.47
2019-02-16T19:14:12.233Z,36.00
2019-02-16T19:15:32.439Z,32.30
2019-02-16T19:17:07.781Z,30.10
2019-02-16T19:18:24.331Z,33.40
2019-02-16T19:19:49.366Z,32.80
2019-02-16T19:21:14.129Z,32.00
2019-02-16T19:22:26.156Z,34.57
2019-02-16T19:23:54.910Z,32.33
2019-02-16T19:25:24.985Z,32.13
2019-02-16T19:27:04.507Z,30.63
2019-02-16T19:28:26.989Z,33.80
2019-02-16T19:29:40.225Z,39.07
2019-02-16T19:31:13.484Z,33.23
2019-02-16T19:32:43.725Z,32.10
2019-02-16T19:35:45.521Z,34.03
2019-02-16T19:37:21.821Z,38.67
2019-02-16T19:38:41.070Z,38.77
2019-02-16T19:39:52.962Z,35.70
2019-02-16T19:41:20.329Z,39.27
2019-02-16T19:42:33.947Z,32.43
2019-02-16T19:43:44.602Z,35.23
2019-02-16T19:44:57.269Z,36.33
2019-02-16T19:46:09.779Z,36.27
2019-02-16T19:47:27.558Z,32.07
2019-02-16T19:48:45.418Z,40.43
2019-02-16T19:50:27.875Z,35.60
2019-02-16T19:52:01.218Z,34.97
2019-02-16T19:53:24.223Z,36.03
2019-02-16T19:54:36.796Z,39.13
2019-02-16T19:56:01.000Z,33.03
2019-02-16T19:57:36.237Z,37.37
2019-02-16T19:59:09.888Z,42.50
2019-02-16T20:00:38.293Z,38.13
2019-02-16T20:01:59.997Z,41.23
2019-02-16T20:03:25.529Z,34.97
2019-02-16T20:04:43.071Z,37.77
2019-02-16T20:06:16.859Z,37.07
2019-02-16T20:08:00.086Z,43.90
2019-02-16T20:09:24.698Z,35.57
2019-02-16T20:10:54.999Z,42.10
2019-02-16T20:12:18.401Z,38.10
2019-02-16T20:14:08.485Z,39.37
2019-02-16T20:15:38.642Z,39.13
2019-02-16T20:17:09.165Z,37.17
2019-02-16T20:18:34.082Z,35.10
2019-02-16T20:19:53.306Z,36.80
2019-02-16T20:21:18.643Z,37.77
2019-02-16T20:22:48.016Z,37.80
2019-02-16T20:24:12.252Z,43.90
2019-02-16T20:25:35.454Z,40.57
2019-02-16T20:27:01.649Z,44.27
2019-02-16T20:28:37.911Z,36.90
2019-02-16T20:30:34.520Z,40.10
2019-02-16T20:31:57.022Z,39.77
2019-02-16T20:33:20.293Z,42.93
2019-02-16T20:34:51.020Z,44.30
2019-02-16T20:36:27.622Z,42.57
2019-02-16T20:37:41.837Z,48.83
2019-02-16T20:39:11.930Z,46.23
2019-02-16T20:40:33.687Z,48.70
2019-02-16T20:41:58.036Z,45.63
2019-02-16T20:43:38.148Z,44.27
2019-02-16T20:44:56.121Z,40.60
2019-02-16T20:46:23.151Z,45.70
2019-02-16T20:47:38.158Z,44.00
2019-02-16T20:49:06.135Z,48.03
2019-02-16T20:50:25.393Z,54.97
2019-02-16T20:52:02.080Z,63.00
2019-02-16T20:53:29.117Z,59.83
2019-02-16T20:54:42.144Z,73.23
2019-02-16T20:56:03.476Z,88.77
2019-02-16T20:57:26.816Z,72.27
2019-02-16T20:58:41.825Z,65.40
2019-02-16T21:00:04.965Z,61.93
2019-02-16T21:01:45.507Z,70.93
2019-02-16T21:03:00.304Z,53.93
2019-02-16T21:04:19.631Z,55.03
2019-02-16T21:05:44.927Z,57.17
2019-02-16T21:07:09.157Z,50.87
2019-02-16T21:08:36.160Z,57.83
2019-02-16T21:10:11.881Z,55.50
2019-02-16T21:11:31.489Z,56.57
2019-02-16T21:12:54.069Z,57.93
2019-02-16T21:14:26.391Z,55.70
2019-02-16T21:15:51.047Z,58.20
2019-02-16T21:17:20.841Z,60.30
2019-02-16T21:18:34.291Z,60.43
2019-02-16T21:20:04.748Z,58.07
2019-02-16T21:21:27.031Z,50.57
2019-02-16T21:22:49.954Z,49.73
2019-02-16T21:24:14.416Z,50.53
2019-02-16T21:25:37.492Z,49.20
2019-02-16T21:27:07.767Z,49.63
2019-02-16T21:28:24.384Z,46.60
2019-02-16T21:29:42.129Z,47.73
2019-02-16T21:31:09.470Z,53.17
2019-02-16T21:32:45.829Z,55.20
2019-02-16T21:34:16.324Z,49.47
2019-02-16T21:35:46.503Z,53.07
2019-02-16T21:37:08.552Z,52.37
2019-02-16T21:38:26.854Z,53.13
2019-02-16T21:39:38.568Z,47.80
2019-02-16T21:40:54.700Z,44.13
2019-02-16T21:42:24.738Z,50.57
2019-02-16T21:43:54.842Z,51.80
2019-02-16T21:45:10.655Z,47.97
2019-02-16T21:46:30.327Z,50.43
2019-02-16T21:47:57.015Z,46.00
2019-02-16T21:49:21.581Z,43.73
2019-02-16T21:50:39.766Z,46.37
2019-02-16T21:52:04.084Z,50.83
2019-02-16T21:53:28.589Z,47.90
2019-02-16T21:55:01.852Z,52.53
2019-02-16T21:56:26.334Z,43.83
2019-02-16T21:57:50.615Z,47.03
2019-02-16T21:59:07.433Z,49.47
2019-02-16T22:00:47.011Z,46.27
2019-02-16T22:02:02.049Z,50.73
2019-02-16T22:03:26.440Z,49.23
2019-02-16T22:04:50.825Z,55.83
2019-02-16T22:06:20.969Z,49.20
2019-02-16T22:07:39.321Z,47.93
2019-02-16T22:08:55.178Z,50.60
2019-02-16T22:10:24.301Z,50.90
2019-02-16T22:11:45.318Z,48.33
2019-02-16T22:13:08.740Z,46.47
2019-02-16T22:14:14.075Z,50.93
2019-02-16T22:15:19.302Z,49.40
2019-02-16T22:16:24.778Z,50.43